createdAt,value
2019-03-20T00:00:43.066Z,4.78
2019-03-20T00:03:29.160Z,5.10
2019-03-20T00:06:16.851Z,5.35
2019-03-20T00:09:05.815Z,6.42
2019-03-20T00:11:52.323Z,5.58
2019-03-20T00:14:38.667Z,6.12
2019-03-20T00:17:25.016Z,6.95
2019-03-20T00:20:12.459Z,6.25
2019-03-20T00:22:58.429Z,3.83
2019-03-20T00:25:44.800Z,4.85
2019-03-20T00:28:31.264Z,6.33
2019-03-20T00:31:17.415Z,4.72
2019-03-20T00:34:03.963Z,4.53
2019-03-20T00:36:50.227Z,2.72
2019-03-20T00:39:36.575Z,5.30
2019-03-20T00:42:22.639Z,3.85
2019-03-20T00:45:10.166Z,3.98
2019-03-20T00:47:56.774Z,3.47
2019-03-20T00:50:42.971Z,4.50
2019-03-20T00:53:29.224Z,2.50
2019-03-20T00:56:15.263Z,4.95
2019-03-20T00:59:01.794Z,3.22
2019-03-20T01:01:48.163Z,2.95
2019-03-20T01:04:34.599Z,3.45
2019-03-20T01:07:21.008Z,5.25
2019-03-20T01:10:09.543Z,3.37
2019-03-20T01:12:55.680Z,4.30
2019-03-20T01:15:42.119Z,3.08
2019-03-20T01:18:28.304Z,3.52
2019-03-20T01:21:14.695Z,3.98
2019-03-20T01:24:01.223Z,2.95
2019-03-20T01:26:47.498Z,5.17
2019-03-20T01:29:33.959Z,3.37
2019-03-20T01:32:20.477Z,4.58
2019-03-20T01:35:06.753Z,3.20
2019-03-20T01:37:53.184Z,4.28
2019-03-20T01:40:40.544Z,2.87
2019-03-20T01:43:27.214Z,2.45
2019-03-20T01:46:14.202Z,4.10
2019-03-20T01:49:00.692Z,3.02
2019-03-20T01:51:47.049Z,4.37
2019-03-20T01:54:33.462Z,4.35
2019-03-20T01:57:21.152Z,4.72
2019-03-20T02:00:07.796Z,1.85
2019-03-20T02:02:54.833Z,2.58
2019-03-20T02:05:41.295Z,1.70
2019-03-20T02:08:27.164Z,2.80
2019-03-20T02:11:13.544Z,2.98
2019-03-20T02:14:00.479Z,2.60
2019-03-20T02:16:46.557Z,3.37
2019-03-20T02:19:33.184Z,2.80
2019-03-20T02:22:19.348Z,1.92
2019-03-20T02:25:05.612Z,2.80
2019-03-20T02:27:51.632Z,3.75
2019-03-20T02:30:38.324Z,2.95
2019-03-20T02:33:24.606Z,3.17
2019-03-20T02:36:11.141Z,4.80
2019-03-20T02:38:57.339Z,2.80
2019-03-20T02:41:44.005Z,2.40
2019-03-20T02:44:30.454Z,2.05
2019-03-20T02:47:16.832Z,3.90
2019-03-20T02:50:03.743Z,3.70
2019-03-20T02:52:49.804Z,3.40
2019-03-20T02:55:35.999Z,4.12
2019-03-20T02:58:22.134Z,3.22
2019-03-20T03:01:08.596Z,2.42
2019-03-20T03:03:55.211Z,3.50
2019-03-20T03:06:41.649Z,3.12
2019-03-20T03:09:28.582Z,2.60
2019-03-20T03:12:14.889Z,5.58
2019-03-20T03:15:01.278Z,4.28
2019-03-20T03:17:47.705Z,2.77
2019-03-20T03:20:34.168Z,2.22
2019-03-20T03:23:20.525Z,2.40
2019-03-20T03:26:06.850Z,2.62
2019-03-20T03:28:53.004Z,2.22
2019-03-20T03:31:39.537Z,2.20
2019-03-20T03:34:25.694Z,3.15
2019-03-20T03:37:12.083Z,3.87
2019-03-20T03:39:58.436Z,2.27
2019-03-20T03:42:45.265Z,4.08
2019-03-20T03:45:31.240Z,2.35
2019-03-20T03:48:17.972Z,2.42
2019-03-20T03:51:04.182Z,2.08
2019-03-20T03:53:50.773Z,2.83
2019-03-20T03:56:37.474Z,1.52
2019-03-20T03:59:24.980Z,3.35
2019-03-20T04:02:11.359Z,2.27
2019-03-20T04:04:58.356Z,3.72
2019-03-20T04:07:44.403Z,2.22
2019-03-20T04:10:30.712Z,3.00
2019-03-20T04:13:17.159Z,2.98
2019-03-20T04:16:03.516Z,2.12
2019-03-20T04:18:49.767Z,1.70
2019-03-20T04:21:36.645Z,3.02
2019-03-20T04:24:22.973Z,2.75
2019-03-20T04:27:09.396Z,1.20
2019-03-20T04:29:55.735Z,1.12
2019-03-20T04:32:42.359Z,1.95
2019-03-20T04:35:28.639Z,1.70
2019-03-20T04:38:15.367Z,3.02
2019-03-20T04:41:01.696Z,2.98
2019-03-20T04:43:48.380Z,2.30
2019-03-20T04:46:34.628Z,1.82
2019-03-20T04:49:21.084Z,2.60
2019-03-20T04:52:07.394Z,3.25
2019-03-20T04:54:53.711Z,3.58
2019-03-20T04:57:40.037Z,3.98
2019-03-20T05:00:26.576Z,3.70
2019-03-20T05:03:13.120Z,2.67
2019-03-20T05:05:59.824Z,3.22
2019-03-20T05:08:46.286Z,2.17
2019-03-20T05:11:32.822Z,2.02
2019-03-20T05:14:19.267Z,1.62
2019-03-20T05:17:05.896Z,3.05
2019-03-20T05:19:52.031Z,2.55
2019-03-20T05:22:38.222Z,4.50
2019-03-20T05:25:24.756Z,1.85
2019-03-20T05:28:10.984Z,3.90
2019-03-20T05:30:57.032Z,0.93
2019-03-20T05:33:43.479Z,2.20
2019-03-20T05:36:29.611Z,3.52
2019-03-20T05:39:16.065Z,4.55
2019-03-20T05:42:02.250Z,2.33
2019-03-20T05:44:48.625Z,3.40
2019-03-20T05:47:34.687Z,1.90
2019-03-20T05:50:21.028Z,1.82
2019-03-20T05:53:07.495Z,2.00
2019-03-20T05:55:55.676Z,1.72
2019-03-20T05:58:41.997Z,5.72
2019-03-20T06:01:28.447Z,4.75
2019-03-20T06:04:14.339Z,4.47
2019-03-20T06:07:00.657Z,5.03
2019-03-20T06:09:46.951Z,3.52
2019-03-20T06:12:33.916Z,6.97
2019-03-20T06:15:20.201Z,6.95
2019-03-20T06:18:06.543Z,4.37
2019-03-20T06:20:52.872Z,12.63
2019-03-20T06:23:39.539Z,2.90
2019-03-20T06:26:27.139Z,6.37
2019-03-20T06:29:13.431Z,4.37
2019-03-20T06:31:59.724Z,6.45
2019-03-20T06:34:46.039Z,5.62
2019-03-20T06:37:33.015Z,5.30
2019-03-20T06:40:19.263Z,6.50
2019-03-20T06:43:05.492Z,4.05
2019-03-20T06:45:51.923Z,4.17
2019-03-20T06:48:38.233Z,6.30
2019-03-20T06:51:24.796Z,11.75
2019-03-20T06:54:11.159Z,14.73
2019-03-20T06:56:57.610Z,11.05
2019-03-20T07:00:27.780Z,9.75
2019-03-20T07:03:27.449Z,7.42
2019-03-20T07:06:22.221Z,15.05
2019-03-20T07:09:25.337Z,11.73
2019-03-20T07:12:11.729Z,6.90
2019-03-20T07:14:58.070Z,7.15
2019-03-20T07:17:44.620Z,5.67
2019-03-20T07:20:31.307Z,6.40
2019-03-20T07:23:17.621Z,4.08
2019-03-20T07:26:04.083Z,7.67
2019-03-20T07:28:50.271Z,6.47
2019-03-20T07:31:36.455Z,6.80
2019-03-20T07:34:22.204Z,5.55
2019-03-20T07:37:09.296Z,7.60
2019-03-20T07:39:55.641Z,5.28
2019-03-20T07:42:42.759Z,4.90
2019-03-20T07:45:29.187Z,4.37
2019-03-20T07:48:22.017Z,4.75
2019-03-20T07:51:04.807Z,7.20
2019-03-20T07:53:51.517Z,7.37
2019-03-20T07:56:37.007Z,6.70
2019-03-20T07:59:23.314Z,6.87
2019-03-20T08:02:09.790Z,5.15
2019-03-20T08:04:56.624Z,7.22
2019-03-20T08:07:42.976Z,8.43
2019-03-20T08:10:29.380Z,12.70
2019-03-20T08:13:15.565Z,6.75
2019-03-20T08:16:03.853Z,7.08
2019-03-20T08:18:49.371Z,8.03
2019-03-20T08:21:35.844Z,9.08
2019-03-20T08:24:22.303Z,6.00
2019-03-20T08:27:08.672Z,6.05
2019-03-20T08:29:54.833Z,8.28
2019-03-20T08:32:41.271Z,5.97
2019-03-20T08:35:27.027Z,6.25
2019-03-20T08:38:18.098Z,5.33
2019-03-20T08:41:01.964Z,12.90
2019-03-20T08:43:49.467Z,8.05
2019-03-20T08:46:35.709Z,8.35
2019-03-20T08:49:22.543Z,7.20
2019-03-20T08:52:08.803Z,8.90
2019-03-20T08:54:55.552Z,5.80
2019-03-20T08:57:41.907Z,10.25
2019-03-20T09:00:28.254Z,3.27
2019-03-20T09:03:14.552Z,6.33
2019-03-20T09:06:00.648Z,3.75
2019-03-20T09:08:46.905Z,6.60
2019-03-20T09:11:33.392Z,9.18
2019-03-20T09:14:19.951Z,6.10
2019-03-20T09:17:06.471Z,8.93
2019-03-20T09:19:52.823Z,9.30
2019-03-20T09:22:40.915Z,5.97
2019-03-20T09:25:26.987Z,9.75
2019-03-20T09:28:13.300Z,9.45
2019-03-20T09:31:00.093Z,8.25
2019-03-20T09:33:46.640Z,8.88
2019-03-20T09:36:42.748Z,12.80
2019-03-20T09:39:21.198Z,12.33
2019-03-20T09:42:07.482Z,2.83
2019-03-20T09:44:53.808Z,16.25
2019-03-20T09:47:40.252Z,7.33
2019-03-20T09:50:26.581Z,9.43
2019-03-20T09:53:13.320Z,8.05
2019-03-20T09:56:01.560Z,6.30
2019-03-20T09:58:48.103Z,12.65
2019-03-20T10:01:35.075Z,5.83
2019-03-20T10:04:21.703Z,7.03
2019-03-20T10:07:09.367Z,11.03
2019-03-20T10:09:57.294Z,9.65
2019-03-20T10:12:43.628Z,14.80
2019-03-20T10:15:29.748Z,6.95
2019-03-20T10:18:16.973Z,16.75
2019-03-20T10:21:03.094Z,8.23
2019-03-20T10:23:49.775Z,5.40
2019-03-20T10:26:36.003Z,12.25
2019-03-20T10:29:22.231Z,6.78
2019-03-20T10:32:08.503Z,7.85
2019-03-20T10:34:54.841Z,6.15
2019-03-20T10:37:41.328Z,8.65
2019-03-20T10:40:27.977Z,4.05
2019-03-20T10:43:15.593Z,5.97
2019-03-20T10:46:02.511Z,9.30
2019-03-20T10:48:48.867Z,12.50
2019-03-20T10:51:35.840Z,15.58
2019-03-20T10:54:22.045Z,5.22
2019-03-20T10:57:08.527Z,7.35
2019-03-20T10:59:54.854Z,5.22
2019-03-20T11:02:41.848Z,11.80
2019-03-20T11:05:27.694Z,7.87
2019-03-20T11:08:14.157Z,9.20
2019-03-20T11:11:00.611Z,8.75
2019-03-20T11:13:46.352Z,16.37
2019-03-20T11:16:32.638Z,16.90
2019-03-20T11:19:19.983Z,12.60
2019-03-20T11:22:06.000Z,12.47
2019-03-20T11:24:52.051Z,17.62
2019-03-20T11:27:38.608Z,25.08
2019-03-20T11:30:25.061Z,17.10
2019-03-20T11:33:11.523Z,32.48
2019-03-20T11:35:58.014Z,46.28
2019-03-20T11:38:44.266Z,40.40
2019-03-20T11:41:30.788Z,50.75
2019-03-20T11:44:17.223Z,35.10
2019-03-20T11:47:03.789Z,35.63
2019-03-20T11:49:51.199Z,36.68
2019-03-20T11:52:38.027Z,29.05
2019-03-20T11:55:24.369Z,31.25
2019-03-20T11:58:10.799Z,35.73
2019-03-20T12:00:57.204Z,38.23
2019-03-20T12:03:44.040Z,41.73
2019-03-20T12:06:30.427Z,37.25
2019-03-20T12:09:16.587Z,25.70
2019-03-20T12:12:03.442Z,26.33
2019-03-20T12:14:50.077Z,26.68
2019-03-20T12:17:36.412Z,30.88
2019-03-20T12:20:22.835Z,30.37
2019-03-20T12:23:09.219Z,23.60
2019-03-20T12:25:55.524Z,35.50
2019-03-20T12:28:41.748Z,25.10
2019-03-20T12:31:28.236Z,19.12
2019-03-20T12:34:14.431Z,19.37
2019-03-20T12:37:01.182Z,11.68
2019-03-20T12:39:53.204Z,9.80
2019-03-20T12:42:47.039Z,17.30
2019-03-20T12:45:33.215Z,19.98
2019-03-20T12:48:19.108Z,12.68
2019-03-20T12:51:05.449Z,18.82
2019-03-20T12:53:52.190Z,10.98
2019-03-20T12:56:38.416Z,16.60
2019-03-20T12:59:24.944Z,14.13
2019-03-20T13:02:11.384Z,16.25
2019-03-20T13:04:58.028Z,13.98
2019-03-20T13:07:44.395Z,10.35
2019-03-20T13:10:30.823Z,7.92
2019-03-20T13:13:17.071Z,11.88
2019-03-20T13:16:03.407Z,11.43
2019-03-20T13:18:49.897Z,6.62
2019-03-20T13:21:36.082Z,12.80
2019-03-20T13:24:22.603Z,6.12
2019-03-20T13:27:09.635Z,10.03
2019-03-20T13:29:55.860Z,9.65
2019-03-20T13:32:41.803Z,8.48
2019-03-20T13:35:28.134Z,10.40
2019-03-20T13:38:14.433Z,10.68
2019-03-20T13:41:01.230Z,9.08
2019-03-20T13:43:47.767Z,9.95
2019-03-20T13:46:33.984Z,8.93
2019-03-20T13:49:20.139Z,6.78
2019-03-20T13:52:06.301Z,4.90
2019-03-20T13:54:52.871Z,10.50
2019-03-20T13:57:39.285Z,8.23
2019-03-20T14:00:25.763Z,9.90
2019-03-20T14:03:12.162Z,8.75
2019-03-20T14:05:58.859Z,12.93
2019-03-20T14:08:45.274Z,8.55
2019-03-20T14:11:32.245Z,12.37
2019-03-20T14:14:18.374Z,12.28
2019-03-20T14:17:04.759Z,12.63
2019-03-20T14:19:51.121Z,6.08
2019-03-20T14:22:37.753Z,10.18
2019-03-20T14:25:25.087Z,13.65
2019-03-20T14:28:11.783Z,12.25
2019-03-20T14:30:59.888Z,5.45
2019-03-20T14:33:46.066Z,8.43
2019-03-20T14:36:33.439Z,9.83
2019-03-20T14:39:19.995Z,10.70
2019-03-20T14:42:06.385Z,8.98
2019-03-20T14:44:52.755Z,10.25
2019-03-20T14:47:42.257Z,7.25
2019-03-20T14:50:28.811Z,5.83
2019-03-20T14:53:14.782Z,6.05
2019-03-20T14:56:02.347Z,5.92
2019-03-20T14:58:50.944Z,9.63
2019-03-20T15:01:43.750Z,9.85
2019-03-20T15:04:30.181Z,13.93
2019-03-20T15:07:16.405Z,11.28
2019-03-20T15:10:03.881Z,8.75
2019-03-20T15:12:50.624Z,15.03
2019-03-20T15:15:43.311Z,10.65
2019-03-20T15:18:29.307Z,8.18
2019-03-20T15:21:15.544Z,11.22
2019-03-20T15:24:02.101Z,8.58
2019-03-20T15:26:48.403Z,19.50
2019-03-20T15:29:34.963Z,8.25
2019-03-20T15:32:22.147Z,7.42
2019-03-20T15:35:08.239Z,5.65
2019-03-20T15:37:54.971Z,5.53
2019-03-20T15:40:41.212Z,7.35
2019-03-20T15:43:27.689Z,6.15
2019-03-20T15:46:14.170Z,4.90
2019-03-20T15:49:00.363Z,5.08
2019-03-20T15:51:49.575Z,4.65
2019-03-20T15:54:35.944Z,4.85
2019-03-20T15:57:22.055Z,5.58
2019-03-20T16:00:12.347Z,4.70
2019-03-20T16:03:01.320Z,7.28
2019-03-20T16:05:47.739Z,6.58
2019-03-20T16:08:34.135Z,9.55
2019-03-20T16:11:20.035Z,7.40
2019-03-20T16:14:06.377Z,8.63
2019-03-20T16:16:52.689Z,11.35
2019-03-20T16:19:39.385Z,6.33
2019-03-20T16:22:25.618Z,6.25
2019-03-20T16:25:13.475Z,8.95
2019-03-20T16:28:00.373Z,6.45
2019-03-20T16:30:46.687Z,3.42
2019-03-20T16:33:32.880Z,4.90
2019-03-20T16:36:19.931Z,8.25
2019-03-20T16:39:07.494Z,5.25
2019-03-20T16:41:53.480Z,6.03
2019-03-20T16:44:41.631Z,9.38
2019-03-20T16:47:27.891Z,5.37
2019-03-20T16:50:15.112Z,7.37
2019-03-20T16:53:01.303Z,10.48
2019-03-20T16:55:47.372Z,11.83
2019-03-20T16:58:34.131Z,12.80
2019-03-20T17:01:20.551Z,15.90
2019-03-20T17:04:06.959Z,13.03
2019-03-20T17:06:54.227Z,13.98
2019-03-20T17:09:40.554Z,8.95
2019-03-20T17:12:26.852Z,9.15
2019-03-20T17:15:18.719Z,10.35
2019-03-20T17:18:05.548Z,8.23
2019-03-20T17:20:51.630Z,9.35
2019-03-20T17:23:38.112Z,12.73
2019-03-20T17:26:24.388Z,9.35
2019-03-20T17:29:10.571Z,6.22
2019-03-20T17:31:58.160Z,7.37
2019-03-20T17:34:44.423Z,11.10
2019-03-20T17:37:30.629Z,11.88
2019-03-20T17:40:17.256Z,13.93
2019-03-20T17:43:03.479Z,6.90
2019-03-20T17:45:49.324Z,6.67
2019-03-20T17:48:35.475Z,10.88
2019-03-20T17:51:21.573Z,10.78
2019-03-20T17:54:07.871Z,9.88
2019-03-20T17:56:53.957Z,7.20
2019-03-20T17:59:40.450Z,4.85
2019-03-20T18:02:26.584Z,5.45
2019-03-20T18:05:12.995Z,7.05
2019-03-20T18:07:59.063Z,10.03
2019-03-20T18:10:45.159Z,4.78
2019-03-20T18:13:31.028Z,10.08
2019-03-20T18:16:19.031Z,3.90
2019-03-20T18:19:05.449Z,9.90
2019-03-20T18:21:51.704Z,5.17
2019-03-20T18:24:37.859Z,7.28
2019-03-20T18:27:25.366Z,6.83
2019-03-20T18:30:19.419Z,3.95
2019-03-20T18:33:05.594Z,7.20
2019-03-20T18:35:51.692Z,9.43
2019-03-20T18:38:38.672Z,6.20
2019-03-20T18:41:25.098Z,5.58
2019-03-20T18:44:12.076Z,5.10
2019-03-20T18:46:58.557Z,7.20
2019-03-20T18:49:46.430Z,8.73
2019-03-20T18:52:32.384Z,8.30
2019-03-20T18:55:19.321Z,8.38
2019-03-20T18:58:05.675Z,9.13
2019-03-20T19:00:52.087Z,5.95
2019-03-20T19:03:40.699Z,11.48
2019-03-20T19:06:27.466Z,8.60
2019-03-20T19:09:13.385Z,6.67
2019-03-20T19:12:08.157Z,6.40
2019-03-20T19:14:48.437Z,13.70
2019-03-20T19:17:34.789Z,7.40
2019-03-20T19:20:21.065Z,7.58
2019-03-20T19:23:07.666Z,8.00
2019-03-20T19:25:53.878Z,10.13
2019-03-20T19:28:40.375Z,5.03
2019-03-20T19:31:26.979Z,3.35
2019-03-20T19:34:13.643Z,7.92
2019-03-20T19:37:00.027Z,7.25
2019-03-20T19:39:46.801Z,18.95
2019-03-20T19:42:32.941Z,6.45
2019-03-20T19:45:18.768Z,4.33
2019-03-20T19:48:05.179Z,8.20
2019-03-20T19:50:51.578Z,3.85
2019-03-20T19:53:37.965Z,11.73
2019-03-20T19:56:24.255Z,6.35
2019-03-20T19:59:10.469Z,7.30
2019-03-20T20:01:56.822Z,4.28
2019-03-20T20:04:43.100Z,7.55
2019-03-20T20:07:29.132Z,6.35
2019-03-20T20:10:15.541Z,2.95
2019-03-20T20:13:01.785Z,6.10
2019-03-20T20:15:48.124Z,6.50
2019-03-20T20:18:34.592Z,5.85
2019-03-20T20:21:20.767Z,5.80
2019-03-20T20:24:06.788Z,9.73
2019-03-20T20:26:53.020Z,8.55
2019-03-20T20:29:38.929Z,4.92
2019-03-20T20:32:25.308Z,7.95
2019-03-20T20:35:12.276Z,6.78
2019-03-20T20:37:58.103Z,7.12
2019-03-20T20:40:44.260Z,8.90
2019-03-20T20:43:30.071Z,6.70
2019-03-20T20:46:16.108Z,7.00
2019-03-20T20:49:02.471Z,8.08
2019-03-20T20:51:49.059Z,7.53
2019-03-20T20:54:35.336Z,5.72
2019-03-20T20:57:21.864Z,4.17
2019-03-20T21:00:16.983Z,6.00
2019-03-20T21:03:03.315Z,6.03
2019-03-20T21:05:49.631Z,5.25
2019-03-20T21:08:36.467Z,7.90
2019-03-20T21:11:22.756Z,4.72
2019-03-20T21:14:09.135Z,6.03
2019-03-20T21:16:57.756Z,6.75
2019-03-20T21:19:44.347Z,4.90
2019-03-20T21:23:27.873Z,13.75
2019-03-20T21:26:15.075Z,4.70
2019-03-20T21:29:38.976Z,8.10
2019-03-20T21:32:34.011Z,8.78
2019-03-20T21:36:04.244Z,7.00
2019-03-20T21:38:51.551Z,4.85
2019-03-20T21:42:41.184Z,4.33
2019-03-20T21:46:11.110Z,5.67
2019-03-20T21:48:58.113Z,4.75
2019-03-20T21:51:44.711Z,5.60
2019-03-20T21:55:18.549Z,7.03
2019-03-20T21:58:16.455Z,4.78
2019-03-20T22:01:44.879Z,4.55
2019-03-20T22:04:32.115Z,5.08
2019-03-20T22:07:19.015Z,5.25
2019-03-20T22:10:51.643Z,7.85
2019-03-20T22:13:48.518Z,6.17
2019-03-20T22:17:18.417Z,6.33
2019-03-20T22:20:58.690Z,3.35
2019-03-20T22:24:29.449Z,4.22
2019-03-20T22:27:55.087Z,4.72
2019-03-20T22:30:43.497Z,2.42
2019-03-20T22:34:06.819Z,7.37
2019-03-20T22:36:53.819Z,3.12
2019-03-20T22:40:37.219Z,4.42
2019-03-20T22:43:30.913Z,6.20
2019-03-20T22:46:49.012Z,3.52
2019-03-20T22:50:15.600Z,5.17
2019-03-20T22:54:08.144Z,3.87
2019-03-20T22:57:09.764Z,11.63
2019-03-20T22:59:56.399Z,20.25
2019-03-20T23:03:04.766Z,19.05
2019-03-20T23:05:51.726Z,16.42
2019-03-20T23:08:39.592Z,14.60
2019-03-20T23:11:26.690Z,14.15
2019-03-20T23:14:13.569Z,12.47
2019-03-20T23:17:00.646Z,13.03
2019-03-20T23:19:48.286Z,12.85
2019-03-20T23:22:36.499Z,19.45
2019-03-20T23:25:23.243Z,9.35
2019-03-20T23:28:10.671Z,11.80
2019-03-20T23:30:57.313Z,12.30
2019-03-20T23:33:44.399Z,10.50
2019-03-20T23:36:31.774Z,11.30
2019-03-20T23:39:18.966Z,11.68
2019-03-20T23:42:06.626Z,11.80
2019-03-20T23:44:54.061Z,8.60
2019-03-20T23:47:49.533Z,7.70
2019-03-20T23:50:37.722Z,11.75
2019-03-20T23:53:25.472Z,11.57
2019-03-20T23:56:12.036Z,13.98
2019-03-20T23:58:59.178Z,9.40
